createdAt,value
2019-03-15T00:03:04.664Z,942.2
2019-03-15T00:06:10.625Z,942.1
2019-03-15T00:09:16.689Z,942.1
2019-03-15T00:12:22.746Z,942.1
2019-03-15T00:15:29.731Z,942.1
2019-03-15T00:18:35.692Z,942
2019-03-15T00:21:41.754Z,942
2019-03-15T00:24:47.715Z,942.1
2019-03-15T00:27:53.676Z,942
2019-03-15T00:30:59.673Z,942
2019-03-15T00:34:05.694Z,942.1
2019-03-15T00:37:11.737Z,942.1
2019-03-15T00:40:18.143Z,942.2
2019-03-15T00:43:24.197Z,942.1
2019-03-15T00:46:30.104Z,942.1
2019-03-15T00:49:36.107Z,941.9
2019-03-15T00:52:42.066Z,942
2019-03-15T00:55:48.026Z,942
2019-03-15T00:58:53.986Z,941.9
2019-03-15T01:02:00.168Z,941.9
2019-03-15T01:05:06.020Z,941.9
2019-03-15T01:08:12.685Z,941.9
2019-03-15T01:11:18.854Z,941.9
2019-03-15T01:14:24.807Z,941.8
2019-03-15T01:17:30.867Z,941.9
2019-03-15T01:20:36.882Z,941.9
2019-03-15T01:23:42.790Z,941.9
2019-03-15T01:26:48.747Z,941.9
2019-03-15T01:29:54.811Z,941.8
2019-03-15T01:33:00.872Z,941.8
2019-03-15T01:36:06.752Z,941.8
2019-03-15T01:39:12.791Z,941.8
2019-03-15T01:42:18.670Z,941.8
2019-03-15T01:45:25.835Z,941.7
2019-03-15T01:48:31.796Z,941.6
2019-03-15T01:51:37.675Z,941.6
2019-03-15T01:54:44.535Z,941.6
2019-03-15T01:57:50.513Z,941.6
2019-03-15T02:00:56.558Z,941.6
2019-03-15T02:04:02.519Z,941.5
2019-03-15T02:07:10.421Z,941.5
2019-03-15T02:10:16.426Z,941.5
2019-03-15T02:13:25.579Z,941.5
2019-03-15T02:16:31.577Z,941.4
2019-03-15T02:19:38.605Z,941.4
2019-03-15T02:22:44.623Z,941.4
2019-03-15T02:25:51.604Z,941.5
2019-03-15T02:28:58.380Z,941.5
2019-03-15T02:32:04.344Z,941.5
2019-03-15T02:35:10.214Z,941.5
2019-03-15T02:38:16.152Z,941.5
2019-03-15T02:41:22.058Z,941.6
2019-03-15T02:44:28.104Z,941.6
2019-03-15T02:47:34.131Z,941.6
2019-03-15T02:50:40.101Z,941.7
2019-03-15T02:53:46.257Z,941.7
2019-03-15T02:56:52.215Z,941.8
2019-03-15T02:59:58.092Z,941.8
2019-03-15T03:03:04.447Z,941.9
2019-03-15T03:06:10.413Z,941.8
2019-03-15T03:09:16.382Z,941.8
2019-03-15T03:12:22.492Z,941.8
2019-03-15T03:15:28.429Z,941.8
2019-03-15T03:18:35.776Z,941.9
2019-03-15T03:21:43.382Z,941.8
2019-03-15T03:24:50.451Z,941.9
2019-03-15T03:27:57.183Z,941.9
2019-03-15T03:31:04.991Z,941.8
2019-03-15T03:34:13.608Z,941.8
2019-03-15T03:37:20.237Z,942
2019-03-15T03:40:26.607Z,941.9
2019-03-15T03:43:34.306Z,942
2019-03-15T03:46:40.265Z,942
2019-03-15T03:49:46.277Z,942
2019-03-15T03:52:52.335Z,942
2019-03-15T03:55:58.353Z,942.1
2019-03-15T03:59:04.462Z,942.1
2019-03-15T04:02:10.701Z,942.1
2019-03-15T04:05:16.653Z,942.1
2019-03-15T04:08:25.260Z,942.1
2019-03-15T04:11:31.187Z,942.1
2019-03-15T04:14:37.170Z,942
2019-03-15T04:17:43.239Z,942
2019-03-15T04:20:49.449Z,942.1
2019-03-15T04:23:55.579Z,942.1
2019-03-15T04:27:01.629Z,942.2
2019-03-15T04:30:10.047Z,942.2
2019-03-15T04:33:16.103Z,942.2
2019-03-15T04:36:22.061Z,942.2
2019-03-15T04:39:28.420Z,942.2
2019-03-15T04:42:34.312Z,942.2
2019-03-15T04:45:40.460Z,942.3
2019-03-15T04:48:46.434Z,942.3
2019-03-15T04:51:52.506Z,942.3
2019-03-15T04:54:58.566Z,942.3
2019-03-15T04:58:04.727Z,942.3
2019-03-15T05:01:10.686Z,942.3
2019-03-15T05:04:16.543Z,942.4
2019-03-15T05:07:22.676Z,942.4
2019-03-15T05:10:28.656Z,942.4
2019-03-15T05:13:34.526Z,942.4
2019-03-15T05:16:43.267Z,942.5
2019-03-15T05:19:49.315Z,942.5
2019-03-15T05:22:55.179Z,942.6
2019-03-15T05:26:01.158Z,942.6
2019-03-15T05:29:07.134Z,942.6
2019-03-15T05:32:13.124Z,942.6
2019-03-15T05:35:19.076Z,942.7
2019-03-15T05:38:25.140Z,942.7
2019-03-15T05:41:31.015Z,942.7
2019-03-15T05:44:37.105Z,942.7
2019-03-15T05:47:43.015Z,942.8
2019-03-15T05:50:48.897Z,942.8
2019-03-15T05:53:54.832Z,942.8
2019-03-15T05:57:00.741Z,942.8
2019-03-15T06:00:06.861Z,942.8
2019-03-15T06:03:13.835Z,942.8
2019-03-15T06:06:19.795Z,942.8
2019-03-15T06:09:25.731Z,942.9
2019-03-15T06:12:31.654Z,942.9
2019-03-15T06:15:37.687Z,943
2019-03-15T06:18:46.296Z,942.9
2019-03-15T06:21:52.172Z,942.9
2019-03-15T06:24:58.110Z,943
2019-03-15T06:28:04.017Z,943
2019-03-15T06:31:10.296Z,943.1
2019-03-15T06:34:16.328Z,943
2019-03-15T06:37:24.755Z,943.1
2019-03-15T06:40:30.691Z,943.1
2019-03-15T06:43:37.797Z,943.2
2019-03-15T06:46:46.333Z,943.2
2019-03-15T06:49:52.369Z,943.2
2019-03-15T06:52:58.429Z,943.3
2019-03-15T06:56:04.307Z,943.2
2019-03-15T06:59:10.352Z,943.3
2019-03-15T07:02:16.319Z,943.3
2019-03-15T07:05:23.191Z,943.3
2019-03-15T07:08:29.486Z,943.3
2019-03-15T07:11:35.442Z,943.3
2019-03-15T07:14:43.057Z,943.3
2019-03-15T07:17:48.994Z,943.3
2019-03-15T07:20:57.815Z,943.3
2019-03-15T07:24:03.849Z,943.3
2019-03-15T07:27:14.626Z,943.3
2019-03-15T07:30:20.595Z,943.4
2019-03-15T07:33:26.619Z,943.3
2019-03-15T07:36:32.754Z,943.3
2019-03-15T07:39:42.375Z,943.2
2019-03-15T07:42:49.479Z,943.1
2019-03-15T07:45:55.427Z,943.2
2019-03-15T07:49:01.739Z,943.2
2019-03-15T07:52:09.160Z,943.2
2019-03-15T07:55:15.279Z,943.2
2019-03-15T07:58:21.283Z,943.1
2019-03-15T08:01:27.277Z,943.1
2019-03-15T08:04:36.528Z,943.2
2019-03-15T08:07:46.745Z,943.2
2019-03-15T08:10:56.183Z,943.3
2019-03-15T08:14:02.244Z,943.3
2019-03-15T08:17:08.283Z,943.3
2019-03-15T08:20:14.376Z,943.3
2019-03-15T08:23:20.278Z,943.3
2019-03-15T08:26:31.365Z,943.4
2019-03-15T08:29:37.412Z,943.5
2019-03-15T08:32:45.295Z,943.3
2019-03-15T08:35:51.385Z,943.4
2019-03-15T08:38:57.343Z,943.4
2019-03-15T08:42:03.580Z,943.4
2019-03-15T08:45:09.653Z,943.4
2019-03-15T08:48:15.680Z,943.4
2019-03-15T08:51:21.783Z,943.4
2019-03-15T08:54:28.015Z,943.3
2019-03-15T08:57:34.068Z,943.3
2019-03-15T09:00:40.107Z,943.3
2019-03-15T09:03:46.819Z,943.2
2019-03-15T09:06:52.712Z,943.3
2019-03-15T09:09:58.623Z,943.3
2019-03-15T09:13:08.225Z,943.3
2019-03-15T09:16:15.173Z,943.3
2019-03-15T09:19:23.691Z,943.2
2019-03-15T09:22:29.940Z,943.3
2019-03-15T09:25:35.895Z,943.2
2019-03-15T09:28:41.866Z,943.2
2019-03-15T09:31:49.555Z,943.2
2019-03-15T09:35:13.538Z,943.2
2019-03-15T09:38:19.609Z,943.2
2019-03-15T09:41:40.471Z,943.2
2019-03-15T09:44:46.366Z,943.2
2019-03-15T09:47:52.351Z,943.2
2019-03-15T09:50:58.290Z,943.2
2019-03-15T09:54:05.216Z,943.2
2019-03-15T09:57:11.095Z,943.2
2019-03-15T10:00:17.317Z,943.1
2019-03-15T10:03:23.895Z,943.2
2019-03-15T10:06:30.044Z,943.1
2019-03-15T10:09:47.097Z,943.1
2019-03-15T10:13:07.101Z,943
2019-03-15T10:16:13.104Z,943.1
2019-03-15T10:19:19.170Z,943.1
2019-03-15T10:22:25.117Z,943.1
2019-03-15T10:25:31.018Z,943.1
2019-03-15T10:28:55.835Z,943.1
2019-03-15T10:32:21.452Z,943
2019-03-15T10:35:27.326Z,942.9
2019-03-15T10:38:33.318Z,943
2019-03-15T10:41:39.737Z,942.9
2019-03-15T10:44:45.615Z,942.9
2019-03-15T10:47:51.604Z,942.9
2019-03-15T10:50:57.567Z,942.9
2019-03-15T10:54:04.443Z,942.9
2019-03-15T10:57:10.504Z,942.9
2019-03-15T11:00:16.453Z,942.8
2019-03-15T11:03:22.834Z,942.9
2019-03-15T11:09:33.011Z,942.7
2019-03-15T11:12:39.176Z,942.7
2019-03-15T11:15:45.198Z,942.6
2019-03-15T11:18:51.162Z,942.6
2019-03-15T11:21:57.166Z,942.7
2019-03-15T11:25:03.116Z,942.6
2019-03-15T11:28:09.189Z,942.6
2019-03-15T11:31:15.058Z,942.5
2019-03-15T11:34:21.206Z,942.5
2019-03-15T11:37:27.436Z,942.6
2019-03-15T11:40:33.690Z,942.5
2019-03-15T11:43:44.171Z,942.5
2019-03-15T11:46:50.177Z,942.5
2019-03-15T11:49:56.632Z,942.5
2019-03-15T11:53:02.692Z,942.4
2019-03-15T11:56:08.773Z,942.3
2019-03-15T11:59:28.260Z,942.3
2019-03-15T12:02:38.514Z,942.3
2019-03-15T12:05:44.550Z,942.3
2019-03-15T12:08:50.529Z,942.3
2019-03-15T12:11:56.736Z,942.3
2019-03-15T12:15:02.663Z,942.4
2019-03-15T12:18:09.935Z,942.3
2019-03-15T12:21:15.990Z,942.2
2019-03-15T12:24:22.009Z,942.3
2019-03-15T12:27:28.057Z,942.2
2019-03-15T12:30:34.034Z,942.3
2019-03-15T12:33:40.158Z,942.2
2019-03-15T12:36:46.209Z,942.2
2019-03-15T12:39:52.168Z,942.2
2019-03-15T12:42:58.179Z,942.3
2019-03-15T12:46:04.278Z,942.1
2019-03-15T12:49:10.300Z,942.1
2019-03-15T12:52:16.308Z,942.1
2019-03-15T12:55:25.214Z,942.1
2019-03-15T12:58:31.150Z,942.1
2019-03-15T13:01:37.164Z,942.2
2019-03-15T13:04:43.028Z,942.1
2019-03-15T13:07:49.130Z,942.2
2019-03-15T13:10:55.207Z,942.2
2019-03-15T13:14:01.344Z,942.2
2019-03-15T13:17:08.448Z,942.1
2019-03-15T13:20:14.410Z,942.1
2019-03-15T13:23:20.471Z,942.1
2019-03-15T13:26:30.145Z,942.2
2019-03-15T13:29:36.158Z,942.2
2019-03-15T13:32:42.172Z,942.2
2019-03-15T13:35:48.185Z,942.2
2019-03-15T13:38:54.508Z,942.2
2019-03-15T13:42:00.505Z,942.2
2019-03-15T13:45:06.521Z,942.2
2019-03-15T13:48:12.618Z,942.3
2019-03-15T13:51:18.577Z,942.2
2019-03-15T13:54:28.083Z,942.3
2019-03-15T13:57:34.045Z,942.3
2019-03-15T14:00:40.116Z,942.3
2019-03-15T14:03:48.799Z,942.4
2019-03-15T14:06:54.803Z,942.3
2019-03-15T14:10:03.970Z,942.3
2019-03-15T14:13:13.159Z,942.4
2019-03-15T14:16:19.227Z,942.4
2019-03-15T14:19:25.178Z,942.4
2019-03-15T14:22:31.137Z,942.4
2019-03-15T14:25:37.200Z,942.5
2019-03-15T14:28:43.136Z,942.4
2019-03-15T14:31:49.135Z,942.5
2019-03-15T14:34:54.997Z,942.4
2019-03-15T14:38:01.144Z,942.5
2019-03-15T14:41:09.376Z,942.5
2019-03-15T14:44:19.458Z,942.6
2019-03-15T14:47:26.310Z,942.6
2019-03-15T14:50:33.392Z,942.7
2019-03-15T14:53:39.254Z,942.6
2019-03-15T14:56:45.416Z,942.7
2019-03-15T14:59:52.387Z,942.8
2019-03-15T15:02:58.595Z,942.8
2019-03-15T15:06:04.478Z,942.8
2019-03-15T15:09:10.470Z,942.9
2019-03-15T15:12:16.600Z,942.9
2019-03-15T15:15:23.617Z,942.9
2019-03-15T15:18:29.508Z,942.9
2019-03-15T15:21:35.528Z,942.9
2019-03-15T15:24:41.519Z,942.8
2019-03-15T15:27:47.548Z,943
2019-03-15T15:31:07.441Z,943
2019-03-15T15:34:13.658Z,942.9
2019-03-15T15:37:19.675Z,943
2019-03-15T15:40:25.625Z,943
2019-03-15T15:43:31.686Z,943.1
2019-03-15T15:46:38.059Z,943.1
2019-03-15T15:49:44.017Z,943.2
2019-03-15T15:52:50.084Z,943.2
2019-03-15T15:55:56.061Z,943.2
2019-03-15T15:59:04.349Z,943.2
2019-03-15T16:02:10.413Z,943.3
2019-03-15T16:05:16.368Z,943.3
2019-03-15T16:08:22.430Z,943.4
2019-03-15T16:11:28.388Z,943.4
2019-03-15T16:14:34.269Z,943.4
2019-03-15T16:17:40.310Z,943.5
2019-03-15T16:20:49.750Z,943.6
2019-03-15T16:23:55.898Z,943.6
2019-03-15T16:27:01.895Z,943.7
2019-03-15T16:30:07.759Z,943.7
2019-03-15T16:33:13.898Z,943.8
2019-03-15T16:36:19.960Z,943.8
2019-03-15T16:39:25.920Z,943.9
2019-03-15T16:42:31.928Z,944
2019-03-15T16:45:37.973Z,944.1
2019-03-15T16:48:44.137Z,944.1
2019-03-15T16:51:50.189Z,944.2
2019-03-15T16:54:56.246Z,944.2
2019-03-15T16:58:02.404Z,944.3
2019-03-15T17:01:08.456Z,944.3
2019-03-15T17:04:14.331Z,944.4
2019-03-15T17:07:20.376Z,944.4
2019-03-15T17:10:26.372Z,944.4
2019-03-15T17:13:32.392Z,944.5
2019-03-15T17:16:38.273Z,944.5
2019-03-15T17:19:44.271Z,944.6
2019-03-15T17:22:50.270Z,944.6
2019-03-15T17:25:56.278Z,944.7
2019-03-15T17:29:02.301Z,944.7
2019-03-15T17:32:08.271Z,944.9
2019-03-15T17:35:14.676Z,944.9
2019-03-15T17:38:20.681Z,945
2019-03-15T17:41:26.740Z,945
2019-03-15T17:44:32.627Z,945
2019-03-15T17:47:38.562Z,945.1
2019-03-15T17:50:44.528Z,945.1
2019-03-15T17:53:53.012Z,945.2
2019-03-15T17:56:59.047Z,945.2
2019-03-15T18:00:05.088Z,945.2
2019-03-15T18:03:22.638Z,945.2
2019-03-15T18:06:28.512Z,945.2
2019-03-15T18:09:34.544Z,945.2
2019-03-15T18:12:40.421Z,945.3
2019-03-15T18:15:46.454Z,945.3
2019-03-15T18:18:52.443Z,945.4
2019-03-15T18:21:58.468Z,945.4
2019-03-15T18:25:04.326Z,945.5
2019-03-15T18:28:10.475Z,945.6
2019-03-15T18:31:16.451Z,945.6
2019-03-15T18:34:22.500Z,945.6
2019-03-15T18:37:28.551Z,945.6
2019-03-15T18:40:34.517Z,945.7
2019-03-15T18:43:40.677Z,945.7
2019-03-15T18:46:46.626Z,945.7
2019-03-15T18:49:52.603Z,945.7
2019-03-15T18:52:58.562Z,945.7
2019-03-15T18:56:04.739Z,945.8
2019-03-15T18:59:13.509Z,945.8
2019-03-15T19:02:19.626Z,945.8
2019-03-15T19:05:25.576Z,945.9
2019-03-15T19:08:31.744Z,945.9
2019-03-15T19:11:37.903Z,945.9
2019-03-15T19:14:43.802Z,946
2019-03-15T19:17:49.825Z,945.9
2019-03-15T19:20:56.095Z,946
2019-03-15T19:24:01.974Z,946
2019-03-15T19:27:08.319Z,946
2019-03-15T19:30:14.383Z,946
2019-03-15T19:33:20.361Z,946.1
2019-03-15T19:36:26.498Z,946
2019-03-15T19:39:32.666Z,946
2019-03-15T19:42:38.628Z,946.2
2019-03-15T19:45:48.987Z,946.1
2019-03-15T19:48:54.863Z,946.2
2019-03-15T19:52:00.804Z,946.2
2019-03-15T19:55:06.868Z,946.2
2019-03-15T19:58:15.711Z,946.3
2019-03-15T20:01:21.786Z,946.3
2019-03-15T20:04:31.126Z,946.4
2019-03-15T20:07:37.527Z,946.5
2019-03-15T20:10:44.470Z,946.5
2019-03-15T20:13:50.447Z,946.5
2019-03-15T20:16:56.473Z,946.5
2019-03-15T20:20:02.430Z,946.4
2019-03-15T20:23:08.494Z,946.4
2019-03-15T20:26:14.452Z,946.4
2019-03-15T20:29:20.511Z,946.4
2019-03-15T20:32:26.677Z,946.4
2019-03-15T20:35:32.741Z,946.4
2019-03-15T20:38:38.610Z,946.5
2019-03-15T20:41:44.556Z,946.4
2019-03-15T20:44:52.986Z,946.4
2019-03-15T20:47:59.035Z,946.3
2019-03-15T20:51:04.922Z,946.3
2019-03-15T20:54:10.853Z,946.4
2019-03-15T20:57:16.791Z,946.4
2019-03-15T21:00:36.926Z,946.5
2019-03-15T21:03:57.084Z,946.5
2019-03-15T21:07:03.173Z,946.4
2019-03-15T21:10:09.169Z,946.4
2019-03-15T21:13:15.294Z,946.4
2019-03-15T21:16:21.213Z,946.3
2019-03-15T21:19:29.810Z,946.4
2019-03-15T21:22:35.984Z,946.4
2019-03-15T21:25:42.112Z,946.4
2019-03-15T21:28:48.051Z,946.5
2019-03-15T21:31:54.297Z,946.5
2019-03-15T21:35:00.554Z,946.4
2019-03-15T21:38:06.640Z,946.5
2019-03-15T21:41:12.516Z,946.5
2019-03-15T21:44:18.680Z,946.5
2019-03-15T21:47:24.729Z,946.6
2019-03-15T21:50:30.706Z,946.6
2019-03-15T21:53:36.662Z,946.6
2019-03-15T21:56:42.715Z,946.6
2019-03-15T21:59:48.665Z,946.6
2019-03-15T22:02:54.606Z,946.6
2019-03-15T22:06:00.684Z,946.7
2019-03-15T22:09:06.758Z,946.7
2019-03-15T22:12:12.808Z,946.8
2019-03-15T22:15:18.694Z,946.7
2019-03-15T22:18:24.811Z,946.8
2019-03-15T22:21:30.710Z,946.8
2019-03-15T22:24:36.805Z,946.8
2019-03-15T22:27:42.936Z,946.8
2019-03-15T22:30:52.480Z,946.8
2019-03-15T22:33:58.470Z,946.7
2019-03-15T22:37:04.603Z,946.7
2019-03-15T22:40:10.760Z,946.7
2019-03-15T22:43:16.740Z,946.8
2019-03-15T22:46:22.628Z,946.8
2019-03-15T22:49:28.648Z,946.8
2019-03-15T22:52:34.743Z,946.8
2019-03-15T22:55:40.853Z,946.8
2019-03-15T22:58:46.735Z,946.7
2019-03-15T23:01:52.895Z,946.7
2019-03-15T23:04:58.957Z,946.6
2019-03-15T23:08:05.023Z,946.6
2019-03-15T23:11:10.979Z,946.6
2019-03-15T23:14:19.400Z,946.6
2019-03-15T23:17:25.491Z,946.6
2019-03-15T23:20:31.503Z,946.6
2019-03-15T23:23:37.390Z,946.6
2019-03-15T23:26:43.318Z,946.7
2019-03-15T23:29:49.260Z,946.6
2019-03-15T23:32:55.286Z,946.6
2019-03-15T23:36:01.316Z,946.7
2019-03-15T23:39:07.398Z,946.7
2019-03-15T23:42:13.530Z,946.6
2019-03-15T23:45:19.788Z,946.5
2019-03-15T23:48:25.671Z,946.5
2019-03-15T23:51:31.614Z,946.5
2019-03-15T23:54:37.679Z,946.4
2019-03-15T23:57:43.743Z,946.4
